Time;durP1;ratioP1;P1;durP2;ratioP2;P2;SDS_P1;SDS_P2;PMS_P1;PMS_P2;Temp;Humidity;BMP_temperature;BMP_pressure;BME280_temperature;BME280_humidity;BME280_pressure;Samples;Min_cycle;Max_cycle;Signal;HPM_P1;HPM_P2
2022/02/14 00:00:30;;;;;;;;;;;;;;;;;;5021910;28;20375;-57
2022/02/14 00:02:55;;;;;;;;;;;;;;;;;;5018763;28;19906;-57
2022/02/14 00:05:20;;;;;;;;;;;;;;;;;;5022780;28;19916;-58
2022/02/14 00:07:45;;;;;;;;;;;;;;;;;;5021850;28;20362;-57
2022/02/14 00:10:11;;;;;;;;;;;;;;;;;;5020688;28;19958;-57
2022/02/14 00:12:39;;;;;;;;;;;;;;;;;;5021170;28;19917;-58
2022/02/14 00:15:04;;;;;;;;;;;;;;;;;;5021936;28;19905;-57
2022/02/14 00:17:29;;;;;;;;;;;;;;;;;;5023786;28;20559;-57
2022/02/14 00:19:55;;;;;;;;;;;;;;;;;;5018344;28;19909;-58
2022/02/14 00:22:21;;;;;;;;;;;;;;;;;;5019595;28;20287;-58
2022/02/14 00:24:46;;;;;;;;;;;;;;;;;;5017792;28;19914;-57
2022/02/14 00:27:12;;;;;;;;;;;;;;;;;;5018881;28;20234;-58
2022/02/14 00:29:37;;;;;;;;;;;;;;;;;;5020043;28;19924;-58
2022/02/14 00:32:02;;;;;;;;;;;;;;;;;;5018033;28;19916;-58
2022/02/14 00:34:27;;;;;;;;;;;;;;;;;;5019841;28;20278;-58
2022/02/14 00:36:52;;;;;;;;;;;;;;;;;;5015952;28;19909;-57
2022/02/14 00:39:17;;;;;;;;;;;;;;;;;;5015471;28;19909;-57
2022/02/14 00:41:43;;;;;;;;;;;;;;;;;;5016910;28;19913;-57
2022/02/14 00:44:08;;;;;;;;;;;;;;;;;;5017090;28;19917;-57
2022/02/14 00:46:33;;;;;;;;;;;;;;;;;;5019088;28;19915;-57
2022/02/14 00:48:58;;;;;;;;;;;;;;;;;;5019878;28;20232;-57
2022/02/14 00:51:23;;;;;;;;;;;;;;;;;;5016734;28;19917;-57
2022/02/14 00:53:48;;;;;;;;;;;;;;;;;;5016401;28;19928;-57
2022/02/14 00:56:14;;;;;;;;;;;;;;;;;;5017559;28;20399;-57
2022/02/14 00:58:39;;;;;;;;;;;;;;;;;;5017620;28;19909;-57
2022/02/14 01:01:04;;;;;;;;;;;;;;;;;;5018062;28;19949;-57
2022/02/14 01:03:29;;;;;;;;;;;;;;;;;;5018256;28;20318;-57
2022/02/14 01:05:54;;;;;;;;;;;;;;;;;;5020923;28;19913;-58
2022/02/14 01:08:19;;;;;;;;;;;;;;;;;;5017893;28;20568;-58
2022/02/14 01:10:44;;;;;;;;;;;;;;;;;;5018544;28;19912;-58
2022/02/14 01:13:10;;;;;;;;;;;;;;;;;;5018285;28;19905;-57
2022/02/14 01:15:35;;;;;;;;;;;;;;;;;;5017720;28;19909;-58
2022/02/14 01:18:00;;;;;;;;;;;;;;;;;;5021759;28;19945;-58
2022/02/14 01:20:25;;;;;;;;;;;;;;;;;;5019042;28;19909;-58
2022/02/14 01:22:50;;;;;;;;;;;;;;;;;;5017575;28;19924;-58
2022/02/14 01:25:15;;;;;;;;;;;;;;;;;;5016743;28;19978;-57
2022/02/14 01:27:41;;;;;;;;;;;;;;;;;;5017376;28;19909;-58
2022/02/14 01:30:06;;;;;;;;;;;;;;;;;;5019119;28;19909;-58
2022/02/14 01:32:31;;;;;;;;;;;;;;;;;;5015460;28;20435;-58
2022/02/14 01:34:56;;;;;;;;;;;;;;;;;;5016392;28;19993;-58
2022/02/14 01:37:21;;;;;;;;;;;;;;;;;;5018775;28;19917;-58
2022/02/14 01:39:46;;;;;;;;;;;;;;;;;;5017592;28;19916;-60
2022/02/14 01:42:12;;;;;;;;;;;;;;;;;;5015909;28;19913;-58
2022/02/14 01:44:38;;;;;;;;;;;;;;;;;;5019929;28;19913;-56
2022/02/14 01:47:03;;;;;;;;;;;;;;;;;;5019734;28;20299;-58
2022/02/14 01:49:28;;;;;;;;;;;;;;;;;;5014515;28;20275;-57
2022/02/14 01:51:53;;;;;;;;;;;;;;;;;;5016814;28;20000;-57
2022/02/14 01:54:18;;;;;;;;;;;;;;;;;;5013691;28;19909;-57
2022/02/14 01:56:43;;;;;;;;;;;;;;;;;;5016473;28;19927;-56
2022/02/14 01:59:08;;;;;;;;;;;;;;;;;;5016369;28;20037;-57
2022/02/14 02:01:34;;;;;;;;;;;;;;;;;;5015791;28;19909;-57
2022/02/14 02:03:59;;;;;;;;;;;;;;;;;;5016572;28;19942;-56
2022/02/14 02:06:24;;;;;;;;;;;;;;;;;;5016059;28;19909;-57
2022/02/14 02:08:49;;;;;;;;;;;;;;;;;;5016374;28;19913;-56
2022/02/14 02:13:59;;;;;;;;;;;;;;;;;;5016724;28;19960;-57
2022/02/14 02:16:27;;;;;;;;;;;;;;;;;;5017270;28;19910;-60
2022/02/14 02:18:52;;;;;;;;;;;;;;;;;;5019442;28;19955;-57
2022/02/14 02:21:17;;;;;;;;;;;;;;;;;;5017079;28;19995;-57
2022/02/14 02:23:42;;;;;;;;;;;;;;;;;;5016552;28;20030;-57
2022/02/14 02:26:08;;;;;;;;;;;;;;;;;;5019632;28;20326;-56
2022/02/14 02:28:33;;;;;;;;;;;;;;;;;;5017877;28;19913;-57
2022/02/14 02:30:58;;;;;;;;;;;;;;;;;;5016798;28;20374;-57
2022/02/14 02:33:23;;;;;;;;;;;;;;;;;;5016561;28;19946;-56
2022/02/14 02:35:48;;;;;;;;;;;;;;;;;;5018496;28;20313;-57
2022/02/14 02:38:15;;;;;;;;;;;;;;;;;;5016938;28;19916;-56
2022/02/14 02:40:40;;;;;;;;;;;;;;;;;;5017674;28;20440;-57
2022/02/14 02:43:05;;;;;;;;;;;;;;;;;;5015891;28;19909;-57
2022/02/14 02:45:30;;;;;;;;;;;;;;;;;;5020060;28;19956;-57
2022/02/14 02:47:55;;;;;;;;;;;;;;;;;;5014617;28;19932;-57
2022/02/14 02:50:21;;;;;;;;;;;;;;;;;;5016651;28;19921;-56
2022/02/14 02:52:46;;;;;;;;;;;;;;;;;;5015721;28;20345;-56
2022/02/14 02:55:11;;;;;;;;;;;;;;;;;;5018218;28;19996;-57
2022/02/14 02:57:36;;;;;;;;;;;;;;;;;;5016732;28;19909;-58
2022/02/14 03:00:01;;;;;;;;;;;;;;;;;;5017804;28;20429;-57
2022/02/14 03:02:27;;;;;;;;;;;;;;;;;;5017173;28;19909;-57
2022/02/14 03:04:52;;;;;;;;;;;;;;;;;;5012460;28;19916;-57
2022/02/14 03:07:17;;;;;;;;;;;;;;;;;;5017794;28;19975;-57
2022/02/14 03:09:42;;;;;;;;;;;;;;;;;;5014190;28;19909;-58
2022/02/14 03:12:07;;;;;;;;;;;;;;;;;;5017689;28;19909;-58
2022/02/14 03:14:33;;;;;;;;;;;;;;;;;;5016110;28;20064;-58
2022/02/14 03:16:58;;;;;;;;;;;;;;;;;;5016868;28;19913;-58
2022/02/14 03:19:24;;;;;;;;;;;;;;;;;;5016327;28;19917;-58
2022/02/14 03:21:49;;;;;;;;;;;;;;;;;;5013092;28;19921;-57
2022/02/14 03:24:14;;;;;;;;;;;;;;;;;;5013523;28;20067;-57
2022/02/14 03:26:39;;;;;;;;;;;;;;;;;;5016654;28;19909;-58
2022/02/14 03:29:04;;;;;;;;;;;;;;;;;;5016011;28;20402;-57
2022/02/14 03:31:29;;;;;;;;;;;;;;;;;;5015133;28;19956;-58
2022/02/14 03:33:55;;;;;;;;;;;;;;;;;;5016645;28;19916;-58
2022/02/14 03:36:20;;;;;;;;;;;;;;;;;;5017866;28;20293;-58
2022/02/14 03:38:45;;;;;;;;;;;;;;;;;;5021631;28;19948;-57
2022/02/14 03:41:11;;;;;;;;;;;;;;;;;;5018181;28;20290;-58
2022/02/14 03:43:36;;;;;;;;;;;;;;;;;;5018268;28;20625;-58
2022/02/14 03:46:01;;;;;;;;;;;;;;;;;;5019846;28;19917;-57
2022/02/14 03:48:27;;;;;;;;;;;;;;;;;;5014239;28;19925;-58
2022/02/14 03:50:52;;;;;;;;;;;;;;;;;;5019063;28;19933;-58
2022/02/14 03:53:17;;;;;;;;;;;;;;;;;;5021953;28;19948;-58
2022/02/14 03:55:42;;;;;;;;;;;;;;;;;;5020083;28;20420;-58
2022/02/14 03:58:07;;;;;;;;;;;;;;;;;;5016435;28;19917;-58
2022/02/14 04:00:32;;;;;;;;;;;;;;;;;;5016162;28;20542;-58
2022/02/14 04:02:58;;;;;;;;;;;;;;;;;;5020312;28;19915;-59
2022/02/14 04:05:23;;;;;;;;;;;;;;;;;;5019881;28;20271;-57
2022/02/14 04:07:48;;;;;;;;;;;;;;;;;;5019133;28;19996;-56
2022/02/14 04:10:13;;;;;;;;;;;;;;;;;;5020150;28;20357;-57
2022/02/14 04:12:38;;;;;;;;;;;;;;;;;;5018768;28;20378;-57
2022/02/14 04:15:04;;;;;;;;;;;;;;;;;;5018274;28;19963;-54
2022/02/14 04:17:29;;;;;;;;;;;;;;;;;;5017388;28;20264;-57
2022/02/14 04:19:54;;;;;;;;;;;;;;;;;;5016470;28;20010;-57
2022/02/14 04:22:19;;;;;;;;;;;;;;;;;;5017204;28;20314;-57
2022/02/14 04:24:44;;;;;;;;;;;;;;;;;;5018229;28;19921;-57
2022/02/14 04:27:09;;;;;;;;;;;;;;;;;;5018602;28;19984;-57
2022/02/14 04:29:34;;;;;;;;;;;;;;;;;;5017732;28;19905;-57
2022/02/14 04:32:00;;;;;;;;;;;;;;;;;;5021553;28;19905;-57
2022/02/14 04:34:25;;;;;;;;;;;;;;;;;;5016065;28;20362;-57
2022/02/14 04:36:50;;;;;;;;;;;;;;;;;;5021580;28;19970;-57
2022/02/14 04:39:15;;;;;;;;;;;;;;;;;;5018655;28;19955;-57
2022/02/14 04:41:40;;;;;;;;;;;;;;;;;;5017800;28;19913;-57
2022/02/14 04:44:06;;;;;;;;;;;;;;;;;;5019453;28;19921;-57
2022/02/14 04:46:31;;;;;;;;;;;;;;;;;;5022149;28;20392;-57
2022/02/14 04:48:56;;;;;;;;;;;;;;;;;;5021506;28;19928;-56
2022/02/14 04:51:22;;;;;;;;;;;;;;;;;;5019984;28;20727;-57
2022/02/14 04:53:47;;;;;;;;;;;;;;;;;;5019946;28;19968;-57
2022/02/14 04:56:12;;;;;;;;;;;;;;;;;;5019632;28;19971;-57
2022/02/14 04:58:37;;;;;;;;;;;;;;;;;;5016849;28;19913;-57
2022/02/14 05:01:02;;;;;;;;;;;;;;;;;;5019624;28;20007;-57
2022/02/14 05:03:27;;;;;;;;;;;;;;;;;;5020159;28;19915;-57
2022/02/14 05:05:53;;;;;;;;;;;;;;;;;;5014471;28;19918;-57
2022/02/14 05:08:18;;;;;;;;;;;;;;;;;;5019306;28;20538;-57
2022/02/14 05:10:43;;;;;;;;;;;;;;;;;;5017669;28;19916;-57
2022/02/14 05:13:08;;;;;;;;;;;;;;;;;;5018902;28;20263;-58
2022/02/14 05:15:33;;;;;;;;;;;;;;;;;;5015616;28;19917;-57
2022/02/14 05:17:58;;;;;;;;;;;;;;;;;;5016546;28;20317;-57
2022/02/14 05:20:24;;;;;;;;;;;;;;;;;;5019673;28;19964;-57
2022/02/14 05:22:49;;;;;;;;;;;;;;;;;;5020025;28;20390;-57
2022/02/14 05:25:14;;;;;;;;;;;;;;;;;;5017147;28;19909;-57
2022/02/14 05:27:39;;;;;;;;;;;;;;;;;;5016281;28;19910;-55
2022/02/14 05:30:04;;;;;;;;;;;;;;;;;;5018037;28;20361;-58
2022/02/14 05:32:29;;;;;;;;;;;;;;;;;;5016632;28;19906;-58
2022/02/14 05:34:56;;;;;;;;;;;;;;;;;;5016661;28;19909;-58
2022/02/14 05:37:21;;;;;;;;;;;;;;;;;;5014618;28;19916;-58
2022/02/14 05:39:47;;;;;;;;;;;;;;;;;;5016037;28;19917;-58
2022/02/14 05:42:12;;;;;;;;;;;;;;;;;;5018150;28;19909;-58
2022/02/14 05:44:37;;;;;;;;;;;;;;;;;;5015721;28;19917;-58
2022/02/14 05:47:02;;;;;;;;;;;;;;;;;;5016511;28;20263;-58
2022/02/14 05:49:28;;;;;;;;;;;;;;;;;;5018046;28;19921;-58
2022/02/14 05:51:53;;;;;;;;;;;;;;;;;;5015799;28;20146;-58
2022/02/14 05:54:19;;;;;;;;;;;;;;;;;;5016521;28;20708;-58
2022/02/14 05:56:44;;;;;;;;;;;;;;;;;;5014969;28;19913;-57
2022/02/14 05:59:09;;;;;;;;;;;;;;;;;;5015822;28;19983;-57
2022/02/14 06:01:35;;;;;;;;;;;;;;;;;;5014582;28;20293;-58
2022/02/14 06:04:00;;;;;;;;;;;;;;;;;;5016211;28;19917;-58
2022/02/14 06:06:25;;;;;;;;;;;;;;;;;;5016073;28;19964;-57
2022/02/14 06:08:50;;;;;;;;;;;;;;;;;;5017989;28;19917;-57
2022/02/14 06:11:15;;;;;;;;;;;;;;;;;;5017093;28;19909;-58
2022/02/14 06:13:41;;;;;;;;;;;;;;;;;;5015779;28;20449;-58
2022/02/14 06:16:06;;;;;;;;;;;;;;;;;;5016466;28;19909;-58
2022/02/14 06:18:31;;;;;;;;;;;;;;;;;;5019695;28;19931;-57
2022/02/14 06:20:56;;;;;;;;;;;;;;;;;;5015619;28;19909;-58
2022/02/14 06:23:21;;;;;;;;;;;;;;;;;;5015551;28;19941;-57
2022/02/14 06:25:47;;;;;;;;;;;;;;;;;;5015756;28;19913;-58
2022/02/14 06:28:12;;;;;;;;;;;;;;;;;;5015089;28;20329;-58
2022/02/14 06:30:37;;;;;;;;;;;;;;;;;;5018628;28;20016;-57
2022/02/14 06:33:02;;;;;;;;;;;;;;;;;;5016617;28;19909;-58
2022/02/14 06:35:27;;;;;;;;;;;;;;;;;;5014863;28;19913;-58
2022/02/14 06:37:52;;;;;;;;;;;;;;;;;;5018743;28;19924;-40
2022/02/14 06:40:17;;;;;;;;;;;;;;;;;;5011186;28;19909;-41
2022/02/14 06:42:47;;;;;;;;;;;;;;;;;;5017349;28;20020;-42
2022/02/14 06:45:12;;;;;;;;;;;;;;;;;;5013275;28;19965;-42
2022/02/14 06:47:37;;;;;;;;;;;;;;;;;;5017190;28;19943;-44
2022/02/14 06:50:03;;;;;;;;;;;;;;;;;;5015175;28;20502;-43
2022/02/14 06:52:28;;;;;;;;;;;;;;;;;;5015133;28;19973;-44
2022/02/14 06:54:53;;;;;;;;;;;;;;;;;;5015757;28;19926;-43
2022/02/14 06:57:18;;;;;;;;;;;;;;;;;;5016256;28;19916;-41
2022/02/14 06:59:43;;;;;;;;;;;;;;;;;;5015520;28;19975;-43
2022/02/14 07:02:09;;;;;;;;;;;;;;;;;;5011402;28;19909;-43
2022/02/14 07:04:34;;;;;;;;;;;;;;;;;;5012200;28;20004;-45
2022/02/14 07:06:59;;;;;;;;;;;;;;;;;;5011647;28;19916;-43
2022/02/14 07:09:24;;;;;;;;;;;;;;;;;;5013921;28;19916;-44
2022/02/14 07:11:49;;;;;;;;;;;;;;;;;;5011094;28;20446;-42
2022/02/14 07:14:16;;;;;;;;;;;;;;;;;;5016102;28;19916;-48
2022/02/14 07:16:43;;;;;;;;;;;;;;;;;;5014273;28;20001;-44
2022/02/14 07:19:08;;;;;;;;;;;;;;;;;;5012232;28;19949;-42
2022/02/14 07:21:33;;;;;;;;;;;;;;;;;;5018108;28;19947;-45
2022/02/14 07:23:58;;;;;;;;;;;;;;;;;;5014976;28;19995;-43
2022/02/14 07:26:23;;;;;;;;;;;;;;;;;;5017479;28;20024;-44
2022/02/14 07:28:48;;;;;;;;;;;;;;;;;;5016035;28;20340;-43
2022/02/14 07:31:13;;;;;;;;;;;;;;;;;;5013106;28;19941;-43
2022/02/14 07:33:39;;;;;;;;;;;;;;;;;;5016795;28;20333;-47
2022/02/14 07:36:05;;;;;;;;;;;;;;;;;;5016062;28;20008;-52
2022/02/14 07:38:30;;;;;;;;;;;;;;;;;;5011335;28;20362;-42
2022/02/14 07:40:56;;;;;;;;;;;;;;;;;;5009952;28;19909;-43
2022/02/14 07:43:21;;;;;;;;;;;;;;;;;;5016104;28;20317;-44
2022/02/14 07:45:46;;;;;;;;;;;;;;;;;;5015234;28;19916;-45
2022/02/14 07:48:11;;;;;;;;;;;;;;;;;;5013017;28;19905;-48
2022/02/14 07:50:37;;;;;;;;;;;;;;;;;;5016564;28;19940;-44
2022/02/14 07:53:02;;;;;;;;;;;;;;;;;;5015826;28;20607;-47
2022/02/14 07:55:27;;;;;;;;;;;;;;;;;;5017444;28;20738;-43
2022/02/14 07:57:52;;;;;;;;;;;;;;;;;;5014591;28;19909;-41
2022/02/14 08:00:17;;;;;;;;;;;;;;;;;;5012815;28;19913;-41
2022/02/14 08:02:42;;;;;;;;;;;;;;;;;;5016843;28;20404;-44
2022/02/14 08:05:08;;;;;;;;;;;;;;;;;;5018135;28;19921;-42
2022/02/14 08:07:36;;;;;;;;;;;;;;;;;;5016018;28;20657;-42
2022/02/14 08:10:01;;;;;;;;;;;;;;;;;;5015159;28;19913;-45
2022/02/14 08:12:27;;;;;;;;;;;;;;;;;;5015628;28;19909;-45
2022/02/14 08:14:52;;;;;;;;;;;;;;;;;;5014376;28;19905;-44
2022/02/14 08:17:17;;;;;;;;;;;;;;;;;;5018327;28;19909;-43
2022/02/14 08:19:42;;;;;;;;;;;;;;;;;;5015986;28;19909;-44
2022/02/14 08:22:08;;;;;;;;;;;;;;;;;;5016347;28;19909;-44
2022/02/14 08:24:33;;;;;;;;;;;;;;;;;;5018268;28;20028;-42
2022/02/14 08:26:59;;;;;;;;;;;;;;;;;;5017879;28;20423;-40
2022/02/14 08:29:26;;;;;;;;;;;;;;;;;;5017325;28;19913;-42
2022/02/14 08:31:51;;;;;;;;;;;;;;;;;;5016730;28;19913;-45
2022/02/14 08:34:16;;;;;;;;;;;;;;;;;;5016673;28;19912;-48
2022/02/14 08:36:43;;;;;;;;;;;;;;;;;;5022556;28;19909;-43
2022/02/14 08:39:08;;;;;;;;;;;;;;;;;;5016967;28;20239;-44
2022/02/14 08:41:33;;;;;;;;;;;;;;;;;;5019077;28;20369;-42
2022/02/14 08:43:59;;;;;;;;;;;;;;;;;;5016925;28;19920;-47
2022/02/14 08:46:25;;;;;;;;;;;;;;;;;;5021716;28;19916;-43
2022/02/14 08:48:51;;;;;;;;;;;;;;;;;;5018644;28;19924;-45
2022/02/14 08:51:17;;;;;;;;;;;;;;;;;;5014751;28;19932;-42
2022/02/14 08:53:43;;;;;;;;;;;;;;;;;;5018285;28;19936;-40
2022/02/14 08:56:08;;;;;;;;;;;;;;;;;;5018777;28;20378;-42
2022/02/14 08:58:33;;;;;;;;;;;;;;;;;;5017445;28;19955;-41
2022/02/14 09:00:58;;;;;;;;;;;;;;;;;;5014860;28;19996;-45
2022/02/14 09:03:23;;;;;;;;;;;;;;;;;;5016123;28;20356;-45
2022/02/14 09:05:48;;;;;;;;;;;;;;;;;;5016710;28;19975;-43
2022/02/14 09:08:14;;;;;;;;;;;;;;;;;;5017740;28;19953;-42
2022/02/14 09:10:39;;;;;;;;;;;;;;;;;;5018455;28;19905;-42
2022/02/14 09:13:04;;;;;;;;;;;;;;;;;;5020007;28;20421;-46
2022/02/14 09:15:29;;;;;;;;;;;;;;;;;;5017281;28;19987;-47
2022/02/14 09:17:54;;;;;;;;;;;;;;;;;;5014909;28;19932;-45
2022/02/14 09:20:23;;;;;;;;;;;;;;;;;;5018582;28;19905;-41
2022/02/14 09:22:48;;;;;;;;;;;;;;;;;;5015564;28;19909;-42
2022/02/14 09:25:13;;;;;;;;;;;;;;;;;;5017561;28;20637;-47
2022/02/14 09:27:39;;;;;;;;;;;;;;;;;;5016763;28;19991;-46
2022/02/14 09:30:05;;;;;;;;;;;;;;;;;;5014652;28;20293;-43
2022/02/14 09:32:30;;;;;;;;;;;;;;;;;;5017737;28;19919;-45
2022/02/14 09:34:55;;;;;;;;;;;;;;;;;;5017484;28;19905;-43
2022/02/14 09:37:21;;;;;;;;;;;;;;;;;;5014401;28;20001;-45
2022/02/14 09:39:46;;;;;;;;;;;;;;;;;;5015771;28;19906;-46
2022/02/14 09:42:11;;;;;;;;;;;;;;;;;;5018632;28;19963;-42
2022/02/14 09:44:37;;;;;;;;;;;;;;;;;;5020565;28;20001;-41
2022/02/14 09:47:02;;;;;;;;;;;;;;;;;;5018281;28;19917;-42
2022/02/14 09:49:27;;;;;;;;;;;;;;;;;;5016426;28;20742;-42
2022/02/14 09:51:56;;;;;;;;;;;;;;;;;;5019496;28;20024;-42
2022/02/14 09:54:21;;;;;;;;;;;;;;;;;;5016872;28;19905;-42
2022/02/14 09:56:46;;;;;;;;;;;;;;;;;;5017022;28;20262;-45
2022/02/14 09:59:12;;;;;;;;;;;;;;;;;;5015980;28;20393;-43
2022/02/14 10:01:38;;;;;;;;;;;;;;;;;;5019239;28;19917;-42
2022/02/14 10:04:04;;;;;;;;;;;;;;;;;;5016085;28;20004;-45
2022/02/14 10:06:29;;;;;;;;;;;;;;;;;;5016155;28;19913;-42
2022/02/14 10:08:55;;;;;;;;;;;;;;;;;;5017108;28;19910;-42
2022/02/14 10:11:23;;;;;;;;;;;;;;;;;;5018772;28;20255;-42
2022/02/14 10:13:51;;;;;;;;;;;;;;;;;;5014946;28;19939;-44
2022/02/14 10:16:16;;;;;;;;;;;;;;;;;;5016964;28;20001;-43
2022/02/14 10:18:41;;;;;;;;;;;;;;;;;;5015539;28;20016;-41
2022/02/14 10:21:06;;;;;;;;;;;;;;;;;;5017139;28;19916;-43
2022/02/14 10:23:32;;;;;;;;;;;;;;;;;;5011717;28;20480;-45
2022/02/14 10:25:57;;;;;;;;;;;;;;;;;;5012058;28;19909;-43
2022/02/14 10:28:22;;;;;;;;;;;;;;;;;;5013726;28;20266;-46
2022/02/14 10:30:47;;;;;;;;;;;;;;;;;;5012328;28;19996;-42
2022/02/14 10:33:12;;;;;;;;;;;;;;;;;;5014262;28;19916;-44
2022/02/14 10:35:37;;;;;;;;;;;;;;;;;;5013451;28;19999;-43
2022/02/14 10:38:07;;;;;;;;;;;;;;;;;;5010775;28;20367;-43
2022/02/14 10:40:38;;;;;;;;;;;;;;;;;;5013417;28;20004;-44
2022/02/14 10:43:04;;;;;;;;;;;;;;;;;;5013817;28;20377;-45
2022/02/14 10:45:29;;;;;;;;;;;;;;;;;;5014425;28;19912;-45
2022/02/14 10:47:56;;;;;;;;;;;;;;;;;;5015237;28;20394;-44
2022/02/14 10:50:23;;;;;;;;;;;;;;;;;;5010800;28;20073;-43
2022/02/14 10:52:49;;;;;;;;;;;;;;;;;;5009800;28;19955;-43
2022/02/14 10:55:15;;;;;;;;;;;;;;;;;;5009042;28;19992;-45
2022/02/14 10:57:40;;;;;;;;;;;;;;;;;;5012725;28;19909;-44
2022/02/14 11:00:05;;;;;;;;;;;;;;;;;;5013680;28;19909;-45
2022/02/14 11:02:31;;;;;;;;;;;;;;;;;;5012870;28;19914;-45
2022/02/14 11:04:56;;;;;;;;;;;;;;;;;;5013368;28;19914;-44
2022/02/14 11:07:21;;;;;;;;;;;;;;;;;;5013032;28;19916;-41
2022/02/14 11:09:46;;;;;;;;;;;;;;;;;;5014943;28;19917;-45
2022/02/14 11:12:12;;;;;;;;;;;;;;;;;;5013510;28;19915;-42
2022/02/14 11:14:37;;;;;;;;;;;;;;;;;;5014039;28;19946;-44
2022/02/14 11:17:02;;;;;;;;;;;;;;;;;;5012480;28;19915;-43
2022/02/14 11:19:27;;;;;;;;;;;;;;;;;;5011224;28;20296;-42
2022/02/14 11:21:53;;;;;;;;;;;;;;;;;;5015038;28;20270;-41
2022/02/14 11:24:18;;;;;;;;;;;;;;;;;;5016112;28;19909;-40
2022/02/14 11:26:43;;;;;;;;;;;;;;;;;;5010874;28;19936;-40
2022/02/14 11:29:08;;;;;;;;;;;;;;;;;;5013556;28;19909;-43
2022/02/14 11:31:34;;;;;;;;;;;;;;;;;;5010705;28;19914;-40
2022/02/14 11:33:59;;;;;;;;;;;;;;;;;;5014589;28;19910;-42
2022/02/14 11:36:25;;;;;;;;;;;;;;;;;;5008971;28;19909;-42
2022/02/14 11:38:53;;;;;;;;;;;;;;;;;;5011064;28;20020;-41
2022/02/14 11:41:18;;;;;;;;;;;;;;;;;;5012881;28;19909;-42
2022/02/14 11:43:43;;;;;;;;;;;;;;;;;;5012439;28;19913;-45
2022/02/14 11:46:09;;;;;;;;;;;;;;;;;;5011934;28;19917;-45
2022/02/14 11:48:34;;;;;;;;;;;;;;;;;;5014547;28;19975;-41
2022/02/14 11:51:00;;;;;;;;;;;;;;;;;;5015177;28;19909;-43
2022/02/14 11:53:25;;;;;;;;;;;;;;;;;;5015436;28;20463;-40
2022/02/14 11:55:50;;;;;;;;;;;;;;;;;;5020017;28;19941;-40
2022/02/14 11:58:15;;;;;;;;;;;;;;;;;;5014371;28;19916;-46
2022/02/14 12:00:40;;;;;;;;;;;;;;;;;;5016730;28;19910;-44
2022/02/14 12:03:05;;;;;;;;;;;;;;;;;;5018826;28;19918;-43
2022/02/14 12:05:30;;;;;;;;;;;;;;;;;;5017345;28;19920;-42
2022/02/14 12:07:56;;;;;;;;;;;;;;;;;;5015314;28;19910;-43
2022/02/14 12:10:21;;;;;;;;;;;;;;;;;;5018323;28;19963;-42
2022/02/14 12:12:46;;;;;;;;;;;;;;;;;;5017462;28;19956;-41
2022/02/14 12:15:11;;;;;;;;;;;;;;;;;;5019027;28;20000;-42
2022/02/14 12:20:34;;;;;;;;;;;;;;;;;;5017085;28;19915;-41
2022/02/14 12:22:59;;;;;;;;;;;;;;;;;;5019207;28;19909;-47
2022/02/14 12:25:24;;;;;;;;;;;;;;;;;;5019330;28;20601;-42
2022/02/14 12:27:49;;;;;;;;;;;;;;;;;;5019150;28;19920;-41
2022/02/14 12:30:15;;;;;;;;;;;;;;;;;;5018470;28;19963;-44
2022/02/14 12:32:40;;;;;;;;;;;;;;;;;;5017278;28;20448;-41
2022/02/14 12:35:05;;;;;;;;;;;;;;;;;;5016241;28;19941;-44
2022/02/14 12:37:30;;;;;;;;;;;;;;;;;;5015603;28;19968;-43
2022/02/14 12:39:58;;;;;;;;;;;;;;;;;;5017872;28;20397;-47
2022/02/14 12:42:24;;;;;;;;;;;;;;;;;;5018964;28;19986;-41
2022/02/14 12:44:50;;;;;;;;;;;;;;;;;;5019950;28;19955;-44
2022/02/14 12:47:15;;;;;;;;;;;;;;;;;;5018333;28;19917;-45
2022/02/14 12:49:42;;;;;;;;;;;;;;;;;;5018183;28;20033;-44
2022/02/14 12:52:08;;;;;;;;;;;;;;;;;;5016870;28;19971;-43
2022/02/14 12:54:33;;;;;;;;;;;;;;;;;;5018937;28;20390;-48
2022/02/14 12:56:58;;;;;;;;;;;;;;;;;;5017707;28;19910;-42
2022/02/14 12:59:23;;;;;;;;;;;;;;;;;;5015925;28;19913;-44
2022/02/14 13:01:48;;;;;;;;;;;;;;;;;;5016998;28;20783;-47
2022/02/14 13:04:13;;;;;;;;;;;;;;;;;;5016606;28;19910;-42
2022/02/14 13:06:42;;;;;;;;;;;;;;;;;;5016863;28;19920;-42
2022/02/14 13:09:07;;;;;;;;;;;;;;;;;;5018288;28;19905;-45
2022/02/14 13:11:32;;;;;;;;;;;;;;;;;;5019723;28;19916;-46
2022/02/14 13:13:57;;;;;;;;;;;;;;;;;;5017913;28;20491;-39
2022/02/14 13:16:23;;;;;;;;;;;;;;;;;;5015431;28;19917;-43
2022/02/14 13:18:50;;;;;;;;;;;;;;;;;;5016451;28;19909;-40
2022/02/14 13:21:16;;;;;;;;;;;;;;;;;;5013800;28;20459;-43
2022/02/14 13:23:41;;;;;;;;;;;;;;;;;;5017826;28;19908;-46
2022/02/14 13:26:06;;;;;;;;;;;;;;;;;;5016794;28;19991;-41
2022/02/14 13:28:31;;;;;;;;;;;;;;;;;;5016418;28;19909;-43
2022/02/14 13:30:56;;;;;;;;;;;;;;;;;;5012096;28;20534;-45
2022/02/14 13:33:21;;;;;;;;;;;;;;;;;;5015841;28;19999;-43
2022/02/14 13:35:46;;;;;;;;;;;;;;;;;;5015180;28;19949;-42
2022/02/14 13:38:12;;;;;;;;;;;;;;;;;;5019974;28;19909;-46
2022/02/14 13:40:37;;;;;;;;;;;;;;;;;;5014370;28;19913;-39
2022/02/14 13:43:02;;;;;;;;;;;;;;;;;;5016881;28;19968;-44
2022/02/14 13:45:27;;;;;;;;;;;;;;;;;;5018823;28;19936;-44
2022/02/14 13:47:52;;;;;;;;;;;;;;;;;;5015238;28;20496;-44
2022/02/14 13:50:17;;;;;;;;;;;;;;;;;;5012354;28;20007;-42
2022/02/14 13:52:43;;;;;;;;;;;;;;;;;;5016661;28;19955;-42
2022/02/14 13:55:08;;;;;;;;;;;;;;;;;;5014334;28;19905;-44
2022/02/14 13:57:33;;;;;;;;;;;;;;;;;;5017226;28;20625;-48
2022/02/14 13:59:59;;;;;;;;;;;;;;;;;;5015462;28;20872;-43
2022/02/14 14:02:27;;;;;;;;;;;;;;;;;;5013527;28;19914;-44
2022/02/14 14:04:52;;;;;;;;;;;;;;;;;;5014564;28;19913;-45
2022/02/14 14:07:19;;;;;;;;;;;;;;;;;;5017681;28;20266;-43
2022/02/14 14:09:45;;;;;;;;;;;;;;;;;;5017903;28;19920;-45
2022/02/14 14:12:10;;;;;;;;;;;;;;;;;;5015362;28;19913;-42
2022/02/14 14:14:39;;;;;;;;;;;;;;;;;;5013892;28;20464;-45
2022/02/14 14:17:04;;;;;;;;;;;;;;;;;;5016564;28;19909;-45
2022/02/14 14:19:29;;;;;;;;;;;;;;;;;;5015351;28;19980;-44
2022/02/14 14:21:54;;;;;;;;;;;;;;;;;;5014629;28;20437;-46
2022/02/14 14:24:19;;;;;;;;;;;;;;;;;;5015298;28;19913;-45
2022/02/14 14:26:45;;;;;;;;;;;;;;;;;;5013357;28;19917;-43
2022/02/14 14:29:10;;;;;;;;;;;;;;;;;;5013605;28;20450;-42
2022/02/14 14:31:36;;;;;;;;;;;;;;;;;;5011160;28;20664;-43
2022/02/14 14:34:01;;;;;;;;;;;;;;;;;;5012978;28;19916;-45
2022/02/14 14:36:26;;;;;;;;;;;;;;;;;;5013353;28;19910;-46
2022/02/14 14:38:51;;;;;;;;;;;;;;;;;;5010926;28;19909;-44
2022/02/14 14:41:17;;;;;;;;;;;;;;;;;;5013369;28;20329;-41
2022/02/14 14:43:42;;;;;;;;;;;;;;;;;;5014307;28;19909;-48
2022/02/14 14:46:07;;;;;;;;;;;;;;;;;;5012835;28;20239;-44
2022/02/14 14:48:33;;;;;;;;;;;;;;;;;;5013321;28;19917;-41
2022/02/14 14:50:58;;;;;;;;;;;;;;;;;;5015468;28;20437;-40
2022/02/14 14:53:23;;;;;;;;;;;;;;;;;;5013949;28;19909;-41
2022/02/14 14:55:48;;;;;;;;;;;;;;;;;;5010654;28;19936;-46
2022/02/14 14:58:13;;;;;;;;;;;;;;;;;;5014396;28;19917;-45
2022/02/14 15:00:38;;;;;;;;;;;;;;;;;;5010308;28;20006;-42
2022/02/14 15:03:04;;;;;;;;;;;;;;;;;;5009167;28;20745;-44
2022/02/14 15:05:29;;;;;;;;;;;;;;;;;;5011952;28;20378;-44
2022/02/14 15:07:54;;;;;;;;;;;;;;;;;;5013398;28;19913;-44
2022/02/14 15:10:20;;;;;;;;;;;;;;;;;;5008853;28;19909;-42
2022/02/14 15:12:46;;;;;;;;;;;;;;;;;;5013077;28;19913;-43
2022/02/14 15:15:12;;;;;;;;;;;;;;;;;;5012393;28;19916;-44
2022/02/14 15:17:37;;;;;;;;;;;;;;;;;;5011335;28;19909;-42
2022/02/14 15:20:02;;;;;;;;;;;;;;;;;;5010962;28;19956;-41
2022/02/14 15:22:27;;;;;;;;;;;;;;;;;;5017027;28;19909;-45
2022/02/14 15:24:52;;;;;;;;;;;;;;;;;;5012098;28;20220;-43
2022/02/14 15:27:18;;;;;;;;;;;;;;;;;;5016621;28;20012;-41
2022/02/14 15:29:43;;;;;;;;;;;;;;;;;;5017297;28;20384;-44
2022/02/14 15:32:08;;;;;;;;;;;;;;;;;;5015179;28;19935;-43
2022/02/14 15:34:33;;;;;;;;;;;;;;;;;;5016251;28;19963;-40
2022/02/14 15:36:58;;;;;;;;;;;;;;;;;;5019368;28;19917;-41
2022/02/14 15:39:24;;;;;;;;;;;;;;;;;;5018268;28;19975;-45
2022/02/14 15:41:49;;;;;;;;;;;;;;;;;;5016630;28;20026;-43
2022/02/14 15:44:15;;;;;;;;;;;;;;;;;;5015345;28;19913;-41
2022/02/14 15:46:40;;;;;;;;;;;;;;;;;;5013608;28;19913;-46
2022/02/14 15:49:05;;;;;;;;;;;;;;;;;;5016217;28;20456;-45
2022/02/14 15:51:32;;;;;;;;;;;;;;;;;;5014257;28;19913;-40
2022/02/14 15:53:57;;;;;;;;;;;;;;;;;;5013631;28;20393;-42
2022/02/14 15:56:22;;;;;;;;;;;;;;;;;;5014633;28;19909;-48
2022/02/14 15:58:47;;;;;;;;;;;;;;;;;;5017721;28;20748;-40
2022/02/14 16:01:12;;;;;;;;;;;;;;;;;;5016993;28;19910;-43
2022/02/14 16:03:38;;;;;;;;;;;;;;;;;;5017907;28;19916;-41
2022/02/14 16:06:03;;;;;;;;;;;;;;;;;;5015334;28;19913;-41
2022/02/14 16:08:28;;;;;;;;;;;;;;;;;;5016604;28;19989;-45
2022/02/14 16:10:56;;;;;;;;;;;;;;;;;;5017603;28;19905;-43
2022/02/14 16:13:21;;;;;;;;;;;;;;;;;;5017083;28;20419;-41
2022/02/14 16:15:46;;;;;;;;;;;;;;;;;;5019054;28;19992;-44
2022/02/14 16:18:12;;;;;;;;;;;;;;;;;;5021570;28;20325;-42
2022/02/14 16:20:37;;;;;;;;;;;;;;;;;;5017867;28;19905;-42
2022/02/14 16:23:02;;;;;;;;;;;;;;;;;;5015714;28;19915;-40
2022/02/14 16:25:31;;;;;;;;;;;;;;;;;;5016841;28;19913;-41
2022/02/14 16:27:56;;;;;;;;;;;;;;;;;;5016353;28;20012;-42
2022/02/14 16:30:21;;;;;;;;;;;;;;;;;;5015422;28;20000;-42
2022/02/14 16:32:46;;;;;;;;;;;;;;;;;;5018857;28;19913;-42
2022/02/14 16:35:12;;;;;;;;;;;;;;;;;;5016123;28;19913;-45
2022/02/14 16:37:37;;;;;;;;;;;;;;;;;;5020613;28;20297;-43